createdAt,value
2023-03-01T05:31:21.514Z,10.63
2023-03-01T05:46:25.579Z,10.70
2023-03-01T06:01:29.055Z,10.57
2023-03-01T06:16:31.329Z,9.77
2023-03-01T06:31:33.493Z,9.82
2023-03-01T06:46:35.470Z,10.45
2023-03-01T07:01:37.529Z,9.98
2023-03-01T07:16:39.548Z,10.98
2023-03-01T07:31:41.481Z,9.77
2023-03-01T07:46:43.383Z,9.15
2023-03-01T08:01:45.341Z,9.65
2023-03-01T08:16:50.538Z,8.88
2023-03-01T08:31:52.705Z,9.18
2023-03-01T08:46:56.679Z,9.23
2023-03-01T09:01:58.627Z,8.75
2023-03-01T09:17:03.981Z,8.68
2023-03-01T09:32:06.196Z,8.52
2023-03-01T09:47:17.165Z,9.45
2023-03-01T10:02:27.796Z,8.40
2023-03-01T10:17:35.473Z,9.20
2023-03-01T10:32:37.409Z,8.70
2023-03-01T10:47:39.400Z,9.02
2023-03-01T11:02:41.460Z,9.00
2023-03-01T11:17:53.841Z,8.55
2023-03-01T11:33:04.269Z,9.95
2023-03-01T11:48:15.287Z,9.80
2023-03-01T12:03:22.239Z,8.95
2023-03-01T12:18:43.102Z,8.35
2023-03-01T12:33:59.003Z,8.93
2023-03-01T12:49:06.558Z,7.72
2023-03-01T13:04:12.365Z,8.52
2023-03-01T13:19:18.633Z,8.75
2023-03-01T13:34:41.362Z,8.45
2023-03-01T13:49:46.456Z,7.80
2023-03-01T14:04:57.954Z,7.00
2023-03-01T14:20:26.441Z,7.30
2023-03-01T14:35:30.532Z,7.88
2023-03-01T14:50:33.731Z,7.65
2023-03-01T15:05:35.674Z,7.80
2023-03-01T15:20:37.671Z,8.23
2023-03-01T15:35:44.077Z,10.10
2023-03-01T15:50:47.415Z,9.10
2023-03-01T16:05:50.005Z,8.65
2023-03-01T16:20:51.932Z,8.25
2023-03-01T16:35:54.123Z,8.35
2023-03-01T16:51:02.008Z,8.60
2023-03-01T17:06:06.165Z,8.30
2023-03-01T17:21:08.244Z,11.73
2023-03-01T17:36:10.448Z,9.85
2023-03-01T17:51:13.461Z,9.75
2023-03-01T18:06:18.339Z,9.48
2023-03-01T18:21:21.610Z,9.07
2023-03-01T18:36:26.302Z,9.38
2023-03-01T18:51:28.855Z,9.70
2023-03-01T19:06:33.538Z,9.02
2023-03-01T19:21:36.136Z,8.73
2023-03-01T19:36:42.754Z,8.38
2023-03-01T19:51:45.039Z,9.20
2023-03-01T20:06:47.659Z,9.35
2023-03-01T20:21:49.722Z,9.65
2023-03-01T20:36:51.885Z,9.60
2023-03-01T20:51:55.180Z,9.80
